Time;durP1;ratioP1;P1;durP2;ratioP2;P2;SDS_P1;SDS_P2;PMS_P1;PMS_P2;Temp;Humidity;BMP_temperature;BMP_pressure;BME280_temperature;BME280_humidity;BME280_pressure;Samples;Min_cycle;Max_cycle;Signal;HPM_P1;HPM_P2
2022/10/03 05:02:13;;;;;;;11.40;4.05;;;7.30;99.90;;;;;;6018177;23;20079;31
2022/10/03 05:04:59;;;;;;;13.18;6.80;;;7.30;99.90;;;;;;4861755;29;20189;-79
2022/10/03 05:07:49;;;;;;;9.85;4.30;;;7.20;99.90;;;;;;4860967;29;20038;-80
2022/10/03 05:10:40;;;;;;;12.15;4.00;;;7.30;99.90;;;;;;4860784;29;20037;-80
2022/10/03 05:13:33;;;;;;;8.45;2.53;;;7.30;99.90;;;;;;4860966;29;20042;-79
2022/10/03 05:16:37;;;;;;;6.32;2.05;;;7.30;99.90;;;;;;4861372;29;20029;-79
2022/10/03 05:19:40;;;;;;;4.95;2.50;;;7.30;99.90;;;;;;4831300;29;20500;-80
2022/10/03 05:22:31;;;;;;;17.45;3.88;;;7.30;99.90;;;;;;4853040;29;20021;-79
2022/10/03 05:25:20;;;;;;;9.00;1.75;;;7.30;99.90;;;;;;4860975;29;20048;-80
2022/10/03 05:28:25;;;;;;;14.95;6.35;;;7.30;99.90;;;;;;4861031;29;20029;-81
2022/10/03 05:31:23;;;;;;;15.93;8.15;;;7.30;99.90;;;;;;4861175;29;20033;-81
2022/10/03 05:34:02;;;;;;;18.00;10.13;;;7.40;99.90;;;;;;4811494;29;20065;-81
2022/10/03 05:36:32;;;;;;;12.65;5.07;;;7.30;99.90;;;;;;4842399;29;20038;-80
2022/10/03 05:39:16;;;;;;;4.53;2.33;;;7.40;99.90;;;;;;4841493;29;20120;-80
2022/10/03 05:42:05;;;;;;;7.78;2.35;;;7.50;99.90;;;;;;4842292;29;20030;-77
2022/10/03 05:44:44;;;;;;;6.75;1.63;;;7.40;99.90;;;;;;4842179;29;20121;-78
2022/10/03 05:50:37;;;;;;;6.47;2.10;;;7.50;99.90;;;;;;4842337;29;20125;-78
2022/10/03 05:53:30;;;;;;;7.32;2.47;;;7.50;99.90;;;;;;4842872;29;20124;-82
2022/10/03 05:55:59;;;;;;;28.25;4.13;;;7.60;99.90;;;;;;4842118;29;20139;-79
2022/10/03 06:01:23;;;;;;;3.63;1.10;;;7.60;1.00;;;;;;5721572;23;20139;-79
2022/10/03 06:04:21;;;;;;;6.78;1.20;;;7.60;1.00;;;;;;4900293;29;20412;-79
2022/10/03 06:07:09;;;;;;;15.68;4.30;;;7.60;1.00;;;;;;4882284;29;20048;-79
2022/10/03 06:10:04;;;;;;;7.88;2.35;;;7.70;1.00;;;;;;4905427;29;20442;-79
2022/10/03 06:12:55;;;;;;;4.82;1.67;;;7.70;1.00;;;;;;4917124;29;20482;-79
2022/10/03 06:15:33;;;;;;;7.55;1.35;;;7.80;1.00;;;;;;4915626;29;20028;-79
2022/10/03 06:18:17;;;;;;;4.07;1.27;;;7.80;1.00;;;;;;4916363;29;20044;-79
2022/10/03 06:21:00;;;;;;;9.50;1.20;;;7.90;1.00;;;;;;4916482;29;20040;-78
2022/10/03 06:23:56;;;;;;;5.25;1.60;;;8.00;1.00;;;;;;4901090;29;20028;-79
2022/10/03 06:26:45;;;;;;;5.93;1.85;;;8.10;1.00;;;;;;4897785;29;20031;-79
2022/10/03 06:30:04;;;;;;;4.72;1.92;;;8.20;1.00;;;;;;4906686;29;20036;-79
2022/10/03 06:32:57;;;;;;;5.38;1.67;;;8.20;1.00;;;;;;4897651;29;20025;-79
2022/10/03 06:35:44;;;;;;;10.77;2.25;;;8.40;1.00;;;;;;4897397;29;20033;-79
2022/10/03 06:38:33;;;;;;;7.45;1.60;;;8.40;1.00;;;;;;4897593;29;20037;-79
2022/10/03 06:41:27;;;;;;;5.30;1.65;;;8.50;99.90;;;;;;4916532;29;20119;-79
2022/10/03 06:44:25;;;;;;;7.57;2.05;;;8.70;99.90;;;;;;4915900;29;20498;-79
2022/10/03 06:47:16;;;;;;;6.10;2.05;;;8.80;99.90;;;;;;4934546;29;20047;-79
2022/10/03 06:49:56;;;;;;;7.05;2.83;;;9.00;1.00;;;;;;4898603;29;20409;-79
2022/10/03 06:52:32;;;;;;;9.00;4.30;;;9.20;1.00;;;;;;4903480;29;20434;-80
2022/10/03 06:55:12;;;;;;;14.48;6.35;;;9.30;1.00;;;;;;4904363;29;20120;-79
2022/10/03 06:58:15;;;;;;;18.42;6.72;;;9.60;99.90;;;;;;4920876;29;20035;-79
2022/10/03 07:00:59;;;;;;;12.07;4.70;;;14.70;1.00;;;;;;4940875;29;20024;-79
2022/10/03 07:03:36;;;;;;;7.57;4.50;;;18.50;99.90;;;;;;4942121;29;20039;-79
2022/10/03 07:06:11;;;;;;;8.80;3.60;;;20.50;99.90;;;;;;4926447;29;20455;-78
2022/10/03 07:09:27;;;;;;;10.38;3.38;;;21.90;99.90;;;;;;4923085;29;20038;-79
2022/10/03 07:12:30;;;;;;;6.97;2.88;;;23.70;99.90;;;;;;4864532;29;20037;-79
2022/10/03 07:15:13;;;;;;;5.63;2.70;;;24.70;99.90;;;;;;4923230;29;20032;-79
2022/10/03 07:17:51;;;;;;;6.07;2.70;;;25.60;99.90;;;;;;4923348;29;20028;-80
2022/10/03 07:20:58;;;;;;;6.03;2.25;;;26.40;99.90;;;;;;4922976;29;20092;-79
2022/10/03 07:23:53;;;;;;;7.18;2.10;;;27.80;74.40;;;;;;4922984;29;20478;-80
2022/10/03 07:26:28;;;;;;;6.55;2.10;;;29.20;23.00;;;;;;4922818;29;20513;-80
2022/10/03 07:29:50;;;;;;;4.35;1.80;;;30.80;8.20;;;;;;4922713;29;20032;-79
2022/10/03 07:32:53;;;;;;;6.68;2.10;;;32.30;1.00;;;;;;4864405;29;20069;-79
2022/10/03 07:38:57;;;;;;;6.80;2.17;;;34.40;1.00;;;;;;4904032;29;20073;-80
2022/10/03 07:41:32;;;;;;;5.68;1.83;;;35.30;1.00;;;;;;4903957;29;20036;-80
2022/10/03 07:44:28;;;;;;;6.85;1.80;;;35.20;1.00;;;;;;4917460;29;20032;-79
2022/10/03 07:47:12;;;;;;;5.95;2.33;;;35.60;1.00;;;;;;4922904;29;20042;-80
2022/10/03 07:49:59;;;;;;;4.68;2.03;;;36.10;1.00;;;;;;4914660;29;20060;-80
2022/10/03 07:52:53;;;;;;;5.70;2.20;;;37.00;1.00;;;;;;4912963;29;20363;-80
2022/10/03 07:55:27;;;;;;;5.32;1.55;;;37.00;1.00;;;;;;4908168;29;20525;-79
2022/10/03 07:57:59;;;;;;;5.78;1.35;;;36.80;1.00;;;;;;4922628;29;20106;-81
2022/10/03 08:00:31;;;;;;;6.45;1.30;;;35.80;1.00;;;;;;4922419;29;20065;-81
2022/10/03 08:03:27;;;;;;;7.13;1.50;;;35.20;1.00;;;;;;4918674;29;20052;-80
2022/10/03 08:06:06;;;;;;;4.97;1.13;;;36.20;1.00;;;;;;4919626;29;20040;-80
2022/10/03 08:08:51;;;;;;;6.68;1.40;;;36.70;1.00;;;;;;4921715;29;20031;-80
2022/10/03 08:12:14;;;;;;;3.85;0.85;;;37.60;1.00;;;;;;4938846;29;20167;-79
2022/10/03 08:14:40;;;;;;;6.20;1.23;;;37.60;1.00;;;;;;4865091;29;20439;-80
2022/10/03 08:17:08;;;;;;;4.03;0.80;;;37.80;1.00;;;;;;4861154;29;20051;-80
2022/10/03 08:19:58;;;;;;;6.15;1.15;;;38.80;1.00;;;;;;4889013;29;20048;-80
2022/10/03 08:22:58;;;;;;;3.90;0.90;;;39.50;1.00;;;;;;4919461;29;20035;-80
2022/10/03 08:25:52;;;;;;;6.55;1.30;;;39.50;1.00;;;;;;4903146;29;20027;-80
2022/10/03 08:28:50;;;;;;;3.72;1.05;;;37.90;1.00;;;;;;4919542;29;20032;-80
2022/10/03 08:31:34;;;;;;;4.93;0.80;;;39.30;1.00;;;;;;4919051;29;20043;-79
2022/10/03 08:34:46;;;;;;;3.50;0.70;;;40.00;1.00;;;;;;4919231;29;20032;-78
2022/10/03 08:37:47;;;;;;;5.35;1.23;;;40.20;1.00;;;;;;4895264;29;20053;-78
2022/10/03 08:40:25;;;;;;;6.20;1.35;;;39.20;1.00;;;;;;4889002;29;20037;-78
2022/10/03 08:43:35;;;;;;;3.58;0.90;;;37.90;1.00;;;;;;4919265;29;20459;-78
2022/10/03 08:46:14;;;;;;;4.70;1.00;;;37.60;1.00;;;;;;4899492;29;20403;-78
2022/10/03 08:48:40;;;;;;;5.07;0.95;;;38.00;1.00;;;;;;4919456;29;20055;-78
2022/10/03 08:51:44;;;;;;;3.42;0.80;;;38.20;1.00;;;;;;4919078;29;20051;-79
2022/10/03 08:54:52;;;;;;;4.45;0.95;;;39.10;1.00;;;;;;4919129;29;20474;-78
2022/10/03 08:57:25;;;;;;;3.42;0.75;;;40.70;1.00;;;;;;4851348;29;20102;-79
2022/10/03 08:59:59;;;;;;;3.65;0.65;;;40.30;1.00;;;;;;4918985;29;20428;-78
2022/10/03 09:03:08;;;;;;;3.97;0.60;;;39.60;1.00;;;;;;4918612;29;20083;-78
2022/10/03 09:05:52;;;;;;;8.10;1.40;;;38.20;1.00;;;;;;4900020;29;20096;-78
2022/10/03 09:08:41;;;;;;;5.57;1.10;;;37.10;1.00;;;;;;4899965;29;20143;-78
2022/10/03 09:11:29;;;;;;;3.75;1.13;;;35.80;1.00;;;;;;4899525;29;20169;-78
2022/10/03 09:14:33;;;;;;;7.70;1.13;;;35.30;1.00;;;;;;4898654;29;20522;-79
2022/10/03 09:17:17;;;;;;;7.63;1.20;;;34.00;1.00;;;;;;4907040;29;20039;-78
2022/10/03 09:20:20;;;;;;;4.45;0.70;;;30.80;1.00;;;;;;4912983;29;20356;-78
2022/10/03 09:22:46;;;;;;;3.25;0.68;;;31.50;1.00;;;;;;4918272;29;20038;-78
2022/10/03 09:25:30;;;;;;;4.35;0.80;;;32.00;1.00;;;;;;4923586;29;20401;-78
2022/10/03 09:28:33;;;;;;;2.83;1.17;;;32.00;1.00;;;;;;4929743;29;20036;-78
2022/10/03 09:31:54;;;;;;;2.42;0.60;;;31.50;1.00;;;;;;4918718;29;20061;-78
2022/10/03 09:34:53;;;;;;;3.13;0.60;;;32.30;1.00;;;;;;4904194;29;20048;-77
2022/10/03 09:37:45;;;;;;;3.40;0.60;;;31.30;1.00;;;;;;4918234;29;20032;-77
2022/10/03 09:40:45;;;;;;;3.47;0.63;;;31.10;1.00;;;;;;4904179;29;20192;-77
2022/10/03 09:43:51;;;;;;;3.50;0.90;;;30.90;1.00;;;;;;4917926;29;20036;-79
2022/10/03 09:46:20;;;;;;;6.07;0.73;;;30.30;1.00;;;;;;4899061;29;20501;-79
2022/10/03 09:49:20;;;;;;;4.95;1.08;;;29.70;1.00;;;;;;4899315;29;20029;-79
2022/10/03 09:51:55;;;;;;;4.15;0.68;;;28.90;1.00;;;;;;4899080;29;20028;-76
2022/10/03 09:54:35;;;;;;;2.53;0.85;;;28.20;1.00;;;;;;4898613;29;20076;-76
2022/10/03 09:57:23;;;;;;;3.28;0.95;;;27.70;1.00;;;;;;4912286;29;20518;-76
2022/10/03 10:00:07;;;;;;;3.17;0.60;;;28.20;1.00;;;;;;4917106;29;20028;-76
2022/10/03 10:02:51;;;;;;;7.18;0.90;;;27.40;1.00;;;;;;4917043;29;20497;-76
2022/10/03 10:05:47;;;;;;;2.22;0.60;;;26.70;1.00;;;;;;4917298;29;20024;-76
2022/10/03 10:08:37;;;;;;;4.82;0.70;;;26.80;1.00;;;;;;4917427;29;20127;-76
2022/10/03 10:11:09;;;;;;;6.90;1.08;;;26.70;1.00;;;;;;4909491;29;20455;-76
2022/10/03 10:14:07;;;;;;;3.72;0.80;;;25.80;1.00;;;;;;4898553;29;20391;-76
2022/10/03 10:17:21;;;;;;;3.50;0.70;;;25.30;1.00;;;;;;4876724;29;20048;-76
2022/10/03 10:19:55;;;;;;;4.72;0.98;;;25.30;1.00;;;;;;4911172;29;20040;-76
2022/10/03 10:22:41;;;;;;;4.78;0.77;;;24.60;1.00;;;;;;4898496;29;20085;-76
2022/10/03 10:25:24;;;;;;;4.05;1.02;;;24.40;1.00;;;;;;4898007;29;20036;-76
2022/10/03 10:27:59;;;;;;;7.03;0.82;;;23.90;1.00;;;;;;4898527;29;20483;-76
2022/10/03 10:31:02;;;;;;;3.38;0.85;;;23.40;1.00;;;;;;4898385;29;20115;-76
2022/10/03 10:34:01;;;;;;;3.80;1.00;;;22.90;1.00;;;;;;4909045;29;20036;-76
2022/10/03 10:36:54;;;;;;;6.90;1.10;;;22.70;1.00;;;;;;4916862;29;20032;-76
2022/10/03 10:39:47;;;;;;;5.03;0.68;;;22.30;1.00;;;;;;4917162;29;20028;-77
2022/10/03 10:42:43;;;;;;;6.32;0.82;;;22.30;1.00;;;;;;4918400;29;20080;-75
2022/10/03 10:45:47;;;;;;;5.82;0.90;;;22.20;1.00;;;;;;4898113;29;20052;-76
2022/10/03 10:48:21;;;;;;;4.85;1.02;;;22.40;1.00;;;;;;4914210;29;20028;-76
2022/10/03 10:51:45;;;;;;;3.67;0.82;;;22.60;1.00;;;;;;4916647;29;20115;-75
2022/10/03 10:54:47;;;;;;;9.38;1.00;;;22.10;1.00;;;;;;4854762;29;20049;-76
2022/10/03 10:57:36;;;;;;;3.90;0.70;;;22.80;1.00;;;;;;4873711;29;20037;-76
2022/10/03 11:00:29;;;;;;;3.78;0.98;;;22.60;1.00;;;;;;4935928;29;20382;-76
2022/10/03 11:03:40;;;;;;;5.35;1.00;;;22.40;1.00;;;;;;4922839;29;20087;-76
2022/10/03 11:06:27;;;;;;;4.43;1.00;;;22.40;1.00;;;;;;4897764;29;20040;-76
2022/10/03 11:09:45;;;;;;;4.55;0.90;;;22.20;1.00;;;;;;4897723;29;20131;-76
2022/10/03 11:13:00;;;;;;;4.10;0.75;;;21.90;1.00;;;;;;4897844;29;20522;-76
2022/10/03 11:15:46;;;;;;;4.53;0.57;;;21.50;1.00;;;;;;4904027;29;20035;-75
2022/10/03 11:59:51;;;;;;;4.75;0.52;;;22.40;1.00;;;;;;4707551;23;20087;-77
2022/10/03 12:02:31;;;;;;;5.88;0.82;;;22.10;1.00;;;;;;4913966;29;20131;-79
2022/10/03 12:05:04;;;;;;;4.40;0.47;;;22.20;1.00;;;;;;4930044;29;20040;-80
2022/10/03 12:11:08;;;;;;;5.32;0.75;;;22.30;1.00;;;;;;4920460;29;20051;-77
2022/10/03 12:13:44;;;;;;;2.83;0.57;;;22.60;1.00;;;;;;4910728;29;20115;-78
2022/10/03 12:16:28;;;;;;;2.60;0.50;;;22.70;1.00;;;;;;4910762;29;20064;-77
2022/10/03 12:19:09;;;;;;;3.83;0.63;;;22.60;1.00;;;;;;4913215;29;20023;-77
2022/10/03 12:21:39;;;;;;;5.85;0.80;;;22.60;1.00;;;;;;4902303;29;20032;-80
2022/10/03 12:24:14;;;;;;;3.67;0.77;;;22.70;1.00;;;;;;4916816;29;20402;-80
2022/10/03 12:26:48;;;;;;;4.75;0.77;;;22.10;1.00;;;;;;4903832;29;20105;-80
2022/10/03 12:29:17;;;;;;;4.82;0.88;;;22.10;1.00;;;;;;4912058;29;20507;-80
2022/10/03 12:31:53;;;;;;;5.10;1.10;;;22.20;1.00;;;;;;4903273;29;20495;-80
2022/10/03 12:34:43;;;;;;;5.25;1.10;;;22.10;1.00;;;;;;4908039;29;20122;-80
2022/10/03 12:37:09;;;;;;;4.75;0.80;;;21.70;1.00;;;;;;4913836;29;20117;-80
2022/10/03 12:40:04;;;;;;;5.40;1.27;;;21.80;1.00;;;;;;4929700;29;20475;-81
2022/10/03 12:42:42;;;;;;;3.63;1.30;;;21.80;1.00;;;;;;4916449;29;20043;-80
2022/10/03 12:45:35;;;;;;;3.70;1.30;;;21.70;1.00;;;;;;4909999;29;20028;-80
2022/10/03 12:48:41;;;;;;;3.75;0.90;;;21.80;1.00;;;;;;4917690;29;20036;-80
2022/10/03 12:51:30;;;;;;;4.20;0.73;;;21.60;1.00;;;;;;4893520;29;20119;-80
2022/10/03 12:54:30;;;;;;;5.47;0.88;;;21.50;1.00;;;;;;4910105;29;20088;-79
2022/10/03 12:57:25;;;;;;;3.45;0.60;;;21.50;1.00;;;;;;4890890;29;20037;-79
2022/10/03 13:00:02;;;;;;;4.53;0.63;;;21.20;1.00;;;;;;4894366;29;20531;-77
2022/10/03 13:02:39;;;;;;;3.47;0.93;;;21.10;1.00;;;;;;4910912;29;20464;-77
2022/10/03 13:05:33;;;;;;;4.03;0.70;;;21.10;1.00;;;;;;4909646;29;20038;-80
2022/10/03 13:08:20;;;;;;;5.30;0.80;;;21.00;1.00;;;;;;4895607;29;20040;-80
2022/10/03 13:10:54;;;;;;;6.45;0.82;;;21.20;1.00;;;;;;4910638;29;20072;-79
2022/10/03 13:13:34;;;;;;;4.10;0.47;;;20.80;1.00;;;;;;4909666;29;20384;-79
2022/10/03 13:16:19;;;;;;;;;;;20.80;1.00;;;;;;4903520;29;20043;-79
2022/10/03 13:19:10;;;;;;;2.95;0.82;;;20.70;1.00;;;;;;4910501;29;19915;-79
2022/10/03 13:21:41;;;;;;;4.32;0.82;;;20.60;1.00;;;;;;4908874;29;20036;-79
2022/10/03 13:24:30;;;;;;;5.15;0.80;;;20.60;1.00;;;;;;4909578;29;20909;-77
2022/10/03 13:27:08;;;;;;;5.20;1.27;;;20.70;1.00;;;;;;4910164;29;20036;-77
2022/10/03 13:29:47;;;;;;;4.70;0.73;;;20.80;1.00;;;;;;4904469;29;20092;-79
2022/10/03 13:32:36;;;;;;;2.85;0.70;;;20.90;1.00;;;;;;4907506;29;20036;-77
2022/10/03 13:38:25;;;;;;;3.92;0.80;;;20.50;1.00;;;;;;4890889;29;20069;-78
2022/10/03 13:41:24;;;;;;;3.53;0.73;;;20.70;1.00;;;;;;4890520;29;20078;-78
2022/10/03 13:44:08;;;;;;;3.25;0.93;;;20.60;1.00;;;;;;4890515;29;20138;-78
2022/10/03 13:46:52;;;;;;;3.50;0.80;;;20.60;1.00;;;;;;4892173;29;20604;-77
2022/10/03 13:49:39;;;;;;;3.72;0.85;;;20.40;1.00;;;;;;4891881;29;20111;-77
2022/10/03 13:52:34;;;;;;;5.00;0.82;;;20.40;1.00;;;;;;4905976;29;20119;-77
2022/10/03 13:55:17;;;;;;;1.95;0.57;;;20.20;1.00;;;;;;4908734;29;20040;-77
2022/10/03 13:57:59;;;;;;;5.00;0.60;;;20.00;1.00;;;;;;4923700;29;20043;-77
2022/10/03 14:00:33;;;;;;;4.43;0.80;;;20.20;1.00;;;;;;4927051;29;20059;-77
2022/10/03 14:03:26;;;;;;;5.03;0.77;;;20.30;1.00;;;;;;4927986;29;20031;-78
2022/10/03 14:06:05;;;;;;;2.47;0.50;;;20.20;1.00;;;;;;4908420;29;20040;-77
2022/10/03 14:08:54;;;;;;;2.85;0.60;;;20.20;1.00;;;;;;4907779;29;20083;-78
2022/10/03 14:11:32;;;;;;;3.05;0.63;;;20.30;1.00;;;;;;4909057;29;20091;-77
2022/10/03 14:14:07;;;;;;;5.20;0.73;;;20.10;1.00;;;;;;4903847;29;20423;-78
2022/10/03 14:16:39;;;;;;;6.30;0.70;;;20.10;1.00;;;;;;4902621;29;20044;-78
2022/10/03 14:19:26;;;;;;;2.92;0.60;;;20.00;1.00;;;;;;4909658;29;20063;-78
2022/10/03 14:22:17;;;;;;;3.53;0.70;;;20.00;1.00;;;;;;4909076;29;20028;-78
2022/10/03 14:24:58;;;;;;;5.43;0.85;;;19.80;1.00;;;;;;4914767;29;20039;-79
2022/10/03 14:27:45;;;;;;;3.30;1.17;;;19.90;1.00;;;;;;4924159;29;20028;-78
2022/10/03 14:30:23;;;;;;;5.78;1.20;;;19.80;1.00;;;;;;4923480;29;20029;-78
2022/10/03 14:32:58;;;;;;;7.13;1.83;;;19.80;1.00;;;;;;4921277;29;20032;-78
2022/10/03 14:35:36;;;;;;;3.17;1.00;;;19.80;1.00;;;;;;4915873;29;20043;-78
2022/10/03 14:38:20;;;;;;;2.42;1.30;;;19.80;1.00;;;;;;4912315;29;20134;-78
2022/10/03 14:40:48;;;;;;;6.32;1.10;;;19.50;1.00;;;;;;4908016;29;20115;-79
2022/10/03 14:43:40;;;;;;;2.83;0.93;;;19.40;1.00;;;;;;4908675;29;20036;-78
2022/10/03 14:46:09;;;;;;;4.15;1.00;;;19.30;1.00;;;;;;4908671;29;20052;-78
2022/10/03 14:48:39;;;;;;;4.35;0.85;;;19.20;1.00;;;;;;4910879;29;20032;-78
2022/10/03 14:51:14;;;;;;;1.73;0.70;;;19.20;1.00;;;;;;4908419;29;20484;-78
2022/10/03 14:53:54;;;;;;;7.05;1.30;;;19.20;1.00;;;;;;4898342;29;20039;-78
2022/10/03 14:56:23;;;;;;;4.60;0.95;;;19.20;1.00;;;;;;4906560;29;20060;-78
2022/10/03 14:58:54;;;;;;;7.10;1.27;;;19.20;1.00;;;;;;4908379;29;20084;-78
2022/10/03 15:01:27;;;;;;;2.45;0.75;;;19.30;1.00;;;;;;4913736;29;20227;-78
2022/10/03 15:04:01;;;;;;;3.47;0.75;;;19.40;1.00;;;;;;4913032;29;20060;-78
2022/10/03 15:06:34;;;;;;;4.28;0.80;;;19.30;1.00;;;;;;4914343;29;20032;-78
2022/10/03 15:09:04;;;;;;;3.58;1.02;;;19.10;1.00;;;;;;4916714;29;20047;-78
2022/10/03 15:11:34;;;;;;;3.60;0.82;;;19.10;1.00;;;;;;4910738;29;20725;-78
2022/10/03 15:14:09;;;;;;;3.13;0.80;;;19.00;1.00;;;;;;4911970;29;20039;-78
2022/10/03 15:16:43;;;;;;;2.55;0.85;;;18.90;1.00;;;;;;4915763;29;20032;-79
2022/10/03 15:19:24;;;;;;;2.25;0.88;;;18.90;1.00;;;;;;4927711;29;20039;-78
2022/10/03 15:21:51;;;;;;;6.00;0.70;;;18.80;1.00;;;;;;4930000;29;20494;-78
2022/10/03 15:24:21;;;;;;;3.08;0.75;;;18.90;1.00;;;;;;4930881;29;20034;-78
2022/10/03 15:26:53;;;;;;;3.47;0.70;;;18.60;1.00;;;;;;4931793;29;20028;-78
2022/10/03 15:29:21;;;;;;;5.30;1.80;;;18.40;1.00;;;;;;4915274;29;20093;-78
2022/10/03 15:31:48;;;;;;;7.28;1.10;;;18.40;1.00;;;;;;4930363;29;20127;-78
2022/10/03 15:34:24;;;;;;;3.88;0.95;;;18.20;1.00;;;;;;4930127;29;20087;-77
2022/10/03 15:36:54;;;;;;;4.10;1.00;;;18.00;1.00;;;;;;4930483;29;21007;-78
2022/10/03 15:39:31;;;;;;;2.45;0.80;;;17.90;1.00;;;;;;4929492;29;20055;-78
2022/10/03 15:42:07;;;;;;;5.53;1.45;;;17.90;1.00;;;;;;4930082;29;20516;-78
2022/10/03 15:44:40;;;;;;;2.38;0.75;;;17.70;1.00;;;;;;4929882;29;20035;-78
2022/10/03 15:47:20;;;;;;;6.22;1.10;;;17.40;1.00;;;;;;4916182;29;20028;-78
2022/10/03 15:49:55;;;;;;;3.17;1.08;;;17.30;1.00;;;;;;4911404;29;20626;-78
2022/10/03 15:52:41;;;;;;;6.60;1.48;;;17.10;1.00;;;;;;4910751;29;20064;-78
2022/10/03 15:55:23;;;;;;;3.92;1.35;;;17.00;1.00;;;;;;4909842;29;20036;-78
2022/10/03 15:57:52;;;;;;;4.53;2.05;;;17.00;1.00;;;;;;4891220;29;20579;-78
2022/10/03 16:00:30;;;;;;;5.78;2.65;;;16.90;1.00;;;;;;4910339;29;20060;-78
2022/10/03 16:03:09;;;;;;;7.00;2.40;;;16.90;1.00;;;;;;4904152;29;20633;-78
2022/10/03 16:05:41;;;;;;;5.53;1.73;;;16.70;1.00;;;;;;4918831;29;20110;-78
2022/10/03 16:08:14;;;;;;;6.75;1.20;;;16.70;1.00;;;;;;4907357;29;20547;-77
2022/10/03 16:10:58;;;;;;;5.20;1.02;;;16.50;1.00;;;;;;4915217;29;20047;-77
2022/10/03 16:13:42;;;;;;;4.13;1.25;;;16.40;1.00;;;;;;4918302;29;20027;-77
2022/10/03 16:16:19;;;;;;;3.47;1.25;;;16.30;1.00;;;;;;4927166;29;20060;-77
2022/10/03 16:19:05;;;;;;;4.88;1.10;;;16.20;1.00;;;;;;4912406;29;20055;-78
2022/10/03 16:21:46;;;;;;;4.72;1.63;;;16.10;1.00;;;;;;4909298;29;20044;-77
2022/10/03 16:24:22;;;;;;;5.97;1.98;;;15.90;1.00;;;;;;4912321;29;20024;-78
2022/10/03 16:26:53;;;;;;;4.80;1.35;;;15.90;1.00;;;;;;4917283;29;20052;-78
2022/10/03 16:29:27;;;;;;;7.20;1.30;;;15.60;1.00;;;;;;4912614;29;20410;-78
2022/10/03 16:32:05;;;;;;;7.10;1.55;;;15.50;1.00;;;;;;4915602;29;20032;-78
2022/10/03 16:34:34;;;;;;;2.75;1.00;;;15.50;1.00;;;;;;4921034;29;20137;-78
2022/10/03 16:37:00;;;;;;;3.65;1.10;;;15.40;1.00;;;;;;4910266;29;20043;-77
2022/10/03 16:39:32;;;;;;;4.47;1.25;;;15.40;1.00;;;;;;4904994;29;20043;-78
2022/10/03 16:42:07;;;;;;;4.15;1.38;;;15.30;1.00;;;;;;4905454;29;20072;-78
2022/10/03 16:44:50;;;;;;;4.35;1.40;;;15.20;1.00;;;;;;4901344;29;20020;-78
2022/10/03 16:47:26;;;;;;;7.38;1.73;;;15.10;5.60;;;;;;4908742;29;20044;-77
2022/10/03 16:52:46;;;;;;;5.35;1.45;;;14.80;6.90;;;;;;4904859;29;20047;-77
2022/10/03 16:55:42;;;;;;;7.55;1.80;;;14.70;9.70;;;;;;4908227;29;20036;-78
2022/10/03 16:58:08;;;;;;;8.48;1.48;;;14.60;13.20;;;;;;4910000;29;20055;-78
2022/10/03 17:01:05;;;;;;;7.38;1.50;;;14.40;16.00;;;;;;4909926;29;20052;-78
2022/10/03 17:04:09;;;;;;;6.20;1.48;;;14.20;18.70;;;;;;4901802;29;20044;-77
2022/10/03 17:06:37;;;;;;;7.18;3.35;;;14.00;25.20;;;;;;4916997;29;20127;-78
2022/10/03 17:09:13;;;;;;;16.80;7.85;;;13.80;29.20;;;;;;4906306;29;20361;-78
2022/10/03 17:11:41;;;;;;;11.70;5.65;;;13.70;32.80;;;;;;4907081;29;20028;-78
2022/10/03 17:14:08;;;;;;;11.50;5.85;;;13.50;41.80;;;;;;4906642;29;20032;-78
2022/10/03 17:16:53;;;;;;;7.78;4.15;;;13.40;45.60;;;;;;4903193;29;20072;-78
2022/10/03 17:19:35;;;;;;;6.90;4.53;;;13.20;57.80;;;;;;4911136;29;20030;-77
2022/10/03 17:22:50;;;;;;;6.93;3.72;;;13.10;59.70;;;;;;4900801;29;20048;-78
2022/10/03 17:25:40;;;;;;;8.82;3.13;;;12.90;69.20;;;;;;4887514;29;20527;-77
2022/10/03 17:28:10;;;;;;;7.35;3.15;;;12.80;83.10;;;;;;4890630;29;20032;-78
2022/10/03 17:30:50;;;;;;;5.85;2.20;;;12.70;91.80;;;;;;4890845;29;20043;-77
2022/10/03 17:33:23;;;;;;;;;;;12.60;94.40;;;;;;4909219;29;20100;-78
2022/10/03 17:36:03;;;;;;;4.13;1.98;;;12.60;94.10;;;;;;4913254;29;19910;-77
2022/10/03 17:38:42;;;;;;;8.88;2.80;;;12.50;98.30;;;;;;4913888;29;20050;-78
2022/10/03 17:41:38;;;;;;;4.60;2.65;;;12.50;99.90;;;;;;4901957;29;20024;-78
2022/10/03 17:44:35;;;;;;;7.40;3.05;;;12.40;99.90;;;;;;4901921;29;20123;-78
2022/10/03 17:47:15;;;;;;;8.77;3.03;;;12.30;99.90;;;;;;4907191;29;21618;-78
2022/10/03 17:49:44;;;;;;;7.50;2.83;;;12.20;99.90;;;;;;4904927;29;20040;-78
2022/10/03 17:52:29;;;;;;;7.82;2.90;;;12.20;99.90;;;;;;4908596;29;20032;-78
2022/10/03 17:55:01;;;;;;;6.00;2.70;;;12.20;99.90;;;;;;4908446;29;20047;-78
2022/10/03 17:57:48;;;;;;;6.50;3.00;;;12.10;99.90;;;;;;4908816;29;20120;-78
2022/10/03 18:00:32;;;;;;;8.43;3.05;;;12.10;99.90;;;;;;4908166;29;20056;-80
2022/10/03 18:03:19;;;;;;;6.70;2.67;;;12.00;99.90;;;;;;4908985;29;20039;-78
2022/10/03 18:05:49;;;;;;;6.57;2.78;;;12.00;99.90;;;;;;4902214;29;20044;-78
2022/10/03 18:08:27;;;;;;;8.43;2.70;;;11.90;99.90;;;;;;4914862;29;20488;-78
2022/10/03 18:10:55;;;;;;;9.52;3.95;;;11.80;99.90;;;;;;4908779;29;20127;-78
2022/10/03 18:13:38;;;;;;;6.93;4.10;;;11.70;99.90;;;;;;4897463;29;20607;-78
2022/10/03 18:16:08;;;;;;;8.07;4.60;;;11.70;99.90;;;;;;4899217;29;20088;-78
2022/10/03 18:18:44;;;;;;;5.40;3.97;;;11.60;99.90;;;;;;4907055;29;20047;-78
2022/10/03 18:21:33;;;;;;;11.60;5.47;;;11.60;99.90;;;;;;4889357;29;20052;-78
2022/10/03 18:24:17;;;;;;;10.95;5.30;;;11.50;99.90;;;;;;4901407;29;20031;-78
2022/10/03 18:26:47;;;;;;;10.27;4.03;;;11.40;99.90;;;;;;4906431;29;20095;-78
2022/10/03 18:29:31;;;;;;;6.20;4.15;;;11.40;99.90;;;;;;4903407;29;20395;-78
2022/10/03 18:32:08;;;;;;;14.45;3.50;;;11.30;99.90;;;;;;4905942;29;20376;-78
2022/10/03 18:34:43;;;;;;;6.15;2.95;;;11.20;99.90;;;;;;4899593;29;20488;-78
2022/10/03 18:37:29;;;;;;;7.13;2.65;;;11.10;99.90;;;;;;4914142;29;20030;-78
2022/10/03 18:39:57;;;;;;;7.80;2.97;;;11.00;99.90;;;;;;4887730;29;20103;-78
2022/10/03 18:42:29;;;;;;;6.63;3.17;;;11.00;99.90;;;;;;4908395;29;20024;-78
2022/10/03 18:44:59;;;;;;;8.13;3.40;;;11.00;99.90;;;;;;4908752;29;20020;-78
2022/10/03 18:47:46;;;;;;;8.05;3.40;;;11.10;99.90;;;;;;4909095;29;20510;-78
2022/10/03 18:50:25;;;;;;;7.15;3.50;;;11.10;99.90;;;;;;4907821;29;20052;-78
2022/10/03 18:52:58;;;;;;;9.43;3.70;;;11.10;99.90;;;;;;4908087;29;20118;-77
2022/10/03 18:55:33;;;;;;;12.68;3.47;;;10.90;99.90;;;;;;4888952;29;20119;-78
2022/10/03 18:58:24;;;;;;;7.00;3.25;;;11.10;99.90;;;;;;4907285;29;20080;-78
2022/10/03 19:00:50;;;;;;;10.18;3.53;;;11.00;99.90;;;;;;4907596;29;20432;-78
2022/10/03 19:03:21;;;;;;;13.23;4.10;;;10.90;99.90;;;;;;4896005;29;20037;-78
2022/10/03 19:05:52;;;;;;;7.72;3.85;;;11.00;99.90;;;;;;4909980;29;20028;-78
2022/10/03 19:08:40;;;;;;;10.73;4.50;;;11.10;99.90;;;;;;4928032;29;21936;-78
2022/10/03 19:11:30;;;;;;;7.05;4.00;;;11.00;99.90;;;;;;4908661;29;20036;-78
2022/10/03 19:13:59;;;;;;;13.18;6.10;;;11.10;99.90;;;;;;4920085;29;20047;-78
2022/10/03 19:16:33;;;;;;;12.13;5.20;;;11.00;99.90;;;;;;4916495;29;20043;-78
2022/10/03 19:19:05;;;;;;;13.55;5.50;;;11.10;99.90;;;;;;4908896;29;20047;-78
2022/10/03 19:21:36;;;;;;;11.55;6.07;;;10.90;99.90;;;;;;4907477;29;20036;-78
2022/10/03 19:24:11;;;;;;;12.38;5.60;;;10.90;99.90;;;;;;4907338;29;20123;-77
2022/10/03 19:26:43;;;;;;;10.70;5.22;;;10.90;99.90;;;;;;4908060;29;20039;-78
2022/10/03 19:29:32;;;;;;;7.50;4.95;;;10.80;99.90;;;;;;4899194;29;20043;-78
2022/10/03 19:32:24;;;;;;;9.95;4.80;;;10.70;99.90;;;;;;4908322;29;20412;-78
2022/10/03 19:34:57;;;;;;;11.48;4.97;;;10.70;99.90;;;;;;4909103;29;20126;-78
2022/10/03 19:37:46;;;;;;;15.25;5.53;;;10.70;99.90;;;;;;4907982;29;20065;-78
2022/10/03 19:40:21;;;;;;;12.75;5.97;;;10.60;99.90;;;;;;4908168;29;20111;-77
2022/10/03 19:42:52;;;;;;;7.95;5.22;;;10.60;99.90;;;;;;4908289;29;20613;-77
2022/10/03 19:45:18;;;;;;;9.45;5.35;;;10.70;99.90;;;;;;4908215;29;20395;-78
2022/10/03 19:47:57;;;;;;;10.98;5.53;;;10.70;99.90;;;;;;4908170;29;20032;-78
2022/10/03 19:50:36;;;;;;;15.07;8.57;;;10.80;99.90;;;;;;4927089;29;20490;-77
2022/10/03 19:53:15;;;;;;;16.67;6.40;;;10.80;99.90;;;;;;4926714;29;20130;-78
2022/10/03 19:55:42;;;;;;;13.53;6.53;;;10.90;99.90;;;;;;4907850;29;20462;-77
2022/10/03 19:58:13;;;;;;;11.18;6.38;;;10.90;99.90;;;;;;4908612;29;20306;-78
2022/10/03 20:00:55;;;;;;;12.75;6.00;;;10.90;99.90;;;;;;4911232;29;20131;-78
2022/10/03 20:03:39;;;;;;;14.00;5.80;;;10.80;99.90;;;;;;4912451;29;20032;-78
2022/10/03 20:06:10;;;;;;;12.85;6.40;;;10.80;99.90;;;;;;4892699;29;20028;-78
2022/10/03 20:08:51;;;;;;;10.93;6.22;;;10.70;99.90;;;;;;4892487;29;20044;-78
2022/10/03 20:11:40;;;;;;;12.73;6.40;;;10.60;99.90;;;;;;4896919;29;20090;-77
2022/10/03 20:14:06;;;;;;;12.90;7.70;;;10.60;99.90;;;;;;4911046;29;20107;-78
2022/10/03 20:16:39;;;;;;;12.10;6.60;;;10.60;99.90;;;;;;4910769;29;20040;-77
2022/10/03 20:19:11;;;;;;;9.75;6.47;;;10.70;99.90;;;;;;4910502;29;20072;-77